Time;durP1;ratioP1;P1;durP2;ratioP2;P2;SDS_P1;SDS_P2;PMS_P1;PMS_P2;Temp;Humidity;BMP_temperature;BMP_pressure;BME280_temperature;BME280_humidity;BME280_pressure;Samples;Min_cycle;Max_cycle;Signal;HPM_P1;HPM_P2
2023/05/13 15:16:24;;;;;;;;;;;;;;;15.14;73.26;98380.69;7394817;19;19911;-77
2023/05/13 15:18:51;;;;;;;;;;;;;;;15.54;72.01;98383.84;7405671;19;20488;-77
2023/05/13 15:21:18;;;;;;;;;;;;;;;15.66;71.55;98377.00;7411373;19;19918;-77
2023/05/13 15:23:44;;;;;;;;;;;;;;;15.68;71.13;98376.81;7412931;19;19923;-77
2023/05/13 15:26:11;;;;;;;;;;;;;;;15.51;70.65;98378.91;7408873;19;19931;-77
2023/05/13 15:28:38;;;;;;;;;;;;;;;15.37;71.71;98385.88;7405346;19;19915;-79
2023/05/13 15:31:05;;;;;;;;;;;;;;;15.44;72.81;98378.00;7407302;19;20270;-78
2023/05/13 15:33:31;;;;;;;;;;;;;;;15.26;73.25;98379.19;7412224;19;19929;-78
2023/05/13 15:35:58;;;;;;;;;;;;;;;15.18;73.10;98375.81;7405655;19;19982;-78
2023/05/13 15:38:25;;;;;;;;;;;;;;;15.16;72.30;98381.31;7416964;19;19932;-78
2023/05/13 15:40:52;;;;;;;;;;;;;;;15.02;74.22;98382.16;7276999;19;19954;-79
2023/05/13 15:43:19;;;;;;;;;;;;;;;15.15;73.97;98380.50;7405238;19;19951;-79
2023/05/13 15:45:45;;;;;;;;;;;;;;;15.18;73.84;98387.28;7409558;19;19922;-78
2023/05/13 15:48:12;;;;;;;;;;;;;;;15.29;73.80;98378.00;7417911;19;19915;-77
2023/05/13 15:50:39;;;;;;;;;;;;;;;15.24;74.29;98378.56;7412481;19;20390;-78
2023/05/13 15:53:06;;;;;;;;;;;;;;;15.22;73.19;98371.75;7415773;19;19978;-78
2023/05/13 15:55:32;;;;;;;;;;;;;;;15.14;73.95;98368.19;7416420;19;19922;-79
2023/05/13 15:57:59;;;;;;;;;;;;;;;14.99;73.44;98377.19;7415336;19;19924;-77
2023/05/13 16:00:26;;;;;;;;;;;;;;;14.85;73.47;98369.03;7413289;19;19947;-79
2023/05/13 16:02:53;;;;;;;;;;;;;;;14.82;75.00;98371.22;7412089;19;19918;-78
2023/05/13 16:05:19;;;;;;;;;;;;;;;14.64;74.15;98369.75;7411844;19;19923;-78
2023/05/13 16:07:46;;;;;;;;;;;;;;;14.61;75.02;98362.13;7408291;19;19952;-78
2023/05/13 16:10:14;;;;;;;;;;;;;;;14.62;75.10;98357.63;7416453;19;19943;-77
2023/05/13 16:12:41;;;;;;;;;;;;;;;14.59;75.21;98363.31;7413251;19;20265;-78
2023/05/13 16:15:08;;;;;;;;;;;;;;;14.55;75.80;98365.50;7414414;19;19923;-77
2023/05/13 16:17:35;;;;;;;;;;;;;;;14.47;75.07;98363.69;7410213;19;19923;-77
2023/05/13 16:20:02;;;;;;;;;;;;;;;14.43;75.79;98364.25;7412342;19;19944;-78
2023/05/13 16:22:33;;;;;;;;;;;;;;;14.49;75.68;98355.53;7416130;19;19919;-78
2023/05/13 16:25:00;;;;;;;;;;;;;;;14.51;75.09;98361.53;7414512;19;19919;-78
2023/05/13 16:27:30;;;;;;;;;;;;;;;14.55;76.51;98364.66;7395238;19;19919;-77
2023/05/13 16:29:57;;;;;;;;;;;;;;;14.58;76.61;98365.13;7389055;19;20860;-79
2023/05/13 16:32:24;;;;;;;;;;;;;;;14.69;75.38;98351.38;7380514;19;19937;-78
2023/05/13 16:34:51;;;;;;;;;;;;;;;14.77;75.48;98358.47;7382228;19;20335;-78
2023/05/13 16:37:17;;;;;;;;;;;;;;;14.75;75.54;98365.81;7383753;19;19933;-77
2023/05/13 16:39:44;;;;;;;;;;;;;;;14.79;74.91;98361.75;7387959;19;19918;-78
2023/05/13 16:42:11;;;;;;;;;;;;;;;14.86;75.43;98362.69;7393843;19;19919;-79
2023/05/13 16:44:37;;;;;;;;;;;;;;;14.93;74.65;98362.78;7391168;19;20228;-78
2023/05/13 16:47:05;;;;;;;;;;;;;;;14.97;74.54;98353.41;7388506;19;20387;-78
2023/05/13 16:49:32;;;;;;;;;;;;;;;15.04;73.87;98358.84;7393775;19;19907;-77
2023/05/13 16:51:58;;;;;;;;;;;;;;;15.14;73.74;98362.03;7394159;19;19918;-79
2023/05/13 16:54:25;;;;;;;;;;;;;;;15.23;73.93;98360.09;7388460;19;19923;-78
2023/05/13 16:56:52;;;;;;;;;;;;;;;15.20;72.92;98361.28;7387984;19;20380;-79
2023/05/13 16:59:22;;;;;;;;;;;;;;;15.20;71.30;98360.47;7393437;19;19915;-78
2023/05/13 17:01:49;;;;;;;;;;;;;;;15.16;72.74;98352.00;7394365;19;20320;-78
2023/05/13 17:04:16;;;;;;;;;;;;;;;15.47;72.32;98346.44;7392046;19;19923;-78
2023/05/13 17:06:43;;;;;;;;;;;;;;;15.88;70.57;98351.22;7392358;19;19915;-78
2023/05/13 17:09:10;;;;;;;;;;;;;;;15.59;70.85;98350.28;7397205;19;19922;-78
2023/05/13 17:11:36;;;;;;;;;;;;;;;15.14;72.47;98354.88;7391461;19;19927;-78
2023/05/13 17:14:03;;;;;;;;;;;;;;;15.08;73.41;98347.59;7391611;19;20614;-78
2023/05/13 17:16:30;;;;;;;;;;;;;;;15.00;74.26;98352.19;7387323;19;19918;-78
2023/05/13 17:18:57;;;;;;;;;;;;;;;14.98;73.27;98351.56;7388289;19;19950;-78
2023/05/13 17:21:25;;;;;;;;;;;;;;;14.99;73.97;98347.91;7389711;19;20375;-78
2023/05/13 17:23:51;;;;;;;;;;;;;;;14.95;74.02;98347.41;7387897;19;19914;-77
2023/05/13 17:26:18;;;;;;;;;;;;;;;14.88;72.67;98354.53;7385890;19;19943;-77
2023/05/13 17:28:45;;;;;;;;;;;;;;;14.87;74.03;98351.00;7397773;19;20493;-77
2023/05/13 17:31:11;;;;;;;;;;;;;;;14.81;74.14;98348.25;7386515;19;19914;-78
2023/05/13 17:33:38;;;;;;;;;;;;;;;14.75;75.40;98349.81;7383390;19;19914;-78
2023/05/13 17:36:05;;;;;;;;;;;;;;;14.75;75.65;98354.34;7380448;19;19940;-78
2023/05/13 17:38:32;;;;;;;;;;;;;;;14.73;75.83;98346.50;7378897;19;19918;-78
2023/05/13 17:40:58;;;;;;;;;;;;;;;14.70;75.77;98349.53;7389262;19;20394;-77
2023/05/13 17:43:25;;;;;;;;;;;;;;;14.70;75.02;98354.88;7391923;19;19910;-78
2023/05/13 17:45:52;;;;;;;;;;;;;;;14.65;73.25;98349.25;7383611;19;19948;-78
2023/05/13 17:48:19;;;;;;;;;;;;;;;14.63;75.14;98345.94;7385798;19;19914;-78
2023/05/13 17:50:46;;;;;;;;;;;;;;;14.55;75.66;98349.53;7384171;19;19918;-77
2023/05/13 17:53:12;;;;;;;;;;;;;;;14.53;75.85;98348.03;7388011;19;19923;-77
2023/05/13 17:55:39;;;;;;;;;;;;;;;14.44;74.17;98342.78;7386341;19;19938;-77
2023/05/13 17:58:06;;;;;;;;;;;;;;;14.43;76.01;98342.97;7391439;19;19923;-77
2023/05/13 18:00:32;;;;;;;;;;;;;;;14.45;76.90;98344.41;7387116;19;19950;-77
2023/05/13 18:02:59;;;;;;;;;;;;;;;14.50;75.77;98341.22;7383251;19;20332;-77
2023/05/13 18:05:26;;;;;;;;;;;;;;;14.52;74.36;98341.88;7387025;19;19918;-77
2023/05/13 18:07:52;;;;;;;;;;;;;;;14.49;72.93;98335.06;7386670;19;19958;-77
2023/05/13 18:10:19;;;;;;;;;;;;;;;14.54;75.37;98347.88;7387425;19;19951;-78
2023/05/13 18:12:46;;;;;;;;;;;;;;;14.58;74.87;98348.31;7388411;19;19914;-78
2023/05/13 18:15:13;;;;;;;;;;;;;;;14.30;73.73;98351.56;7389847;19;19918;-77
2023/05/13 18:17:40;;;;;;;;;;;;;;;14.32;76.33;98357.50;7390930;19;19947;-77
2023/05/13 18:20:07;;;;;;;;;;;;;;;14.40;76.78;98354.81;7391197;19;19918;-77
2023/05/13 18:22:33;;;;;;;;;;;;;;;14.43;77.23;98358.94;7389139;19;19915;-77
2023/05/13 18:25:01;;;;;;;;;;;;;;;14.37;76.97;98356.97;7384411;19;19934;-78
2023/05/13 18:27:28;;;;;;;;;;;;;;;14.35;77.44;98364.31;7388764;19;19927;-78
2023/05/13 18:29:54;;;;;;;;;;;;;;;14.31;76.90;98365.69;7389644;19;19918;-77
2023/05/13 18:32:21;;;;;;;;;;;;;;;14.27;76.71;98371.38;7393477;19;19915;-78
2023/05/13 18:34:48;;;;;;;;;;;;;;;14.17;77.21;98372.63;7389799;19;19921;-79
2023/05/13 18:37:15;;;;;;;;;;;;;;;14.04;77.09;98368.72;7390475;19;19914;-79
2023/05/13 18:39:44;;;;;;;;;;;;;;;13.92;77.65;98375.47;7391791;19;19943;-78
2023/05/13 18:42:11;;;;;;;;;;;;;;;13.78;78.67;98379.72;7389261;19;19922;-79
2023/05/13 18:44:37;;;;;;;;;;;;;;;13.76;77.99;98380.91;7389467;19;19944;-78
2023/05/13 18:47:05;;;;;;;;;;;;;;;13.70;78.08;98382.44;7384664;19;19910;-78
2023/05/13 18:49:31;;;;;;;;;;;;;;;13.61;78.42;98380.81;7383580;19;20381;-78
2023/05/13 18:51:58;;;;;;;;;;;;;;;13.52;78.70;98374.72;7388625;19;19915;-78
2023/05/13 18:54:27;;;;;;;;;;;;;;;13.43;79.11;98377.56;7387111;19;19918;-78
2023/05/13 18:56:55;;;;;;;;;;;;;;;13.34;79.53;98376.78;7383791;19;19935;-78
2023/05/13 18:59:21;;;;;;;;;;;;;;;13.31;80.13;98379.81;7389661;19;19942;-78
2023/05/13 19:01:48;;;;;;;;;;;;;;;13.37;80.53;98392.38;7389487;19;19937;-77
2023/05/13 19:04:16;;;;;;;;;;;;;;;13.17;81.65;98389.31;7388760;19;19933;-77
2023/05/13 19:06:43;;;;;;;;;;;;;;;13.18;81.98;98389.13;7384044;19;19915;-77
2023/05/13 19:09:10;;;;;;;;;;;;;;;13.21;81.76;98390.59;7380501;19;19939;-77
2023/05/13 19:11:36;;;;;;;;;;;;;;;13.17;81.99;98392.78;7382897;19;19919;-77
2023/05/13 19:14:03;;;;;;;;;;;;;;;13.10;82.06;98391.81;7382934;19;19951;-77
2023/05/13 19:16:29;;;;;;;;;;;;;;;13.04;82.09;98389.84;7382681;19;19923;-77
2023/05/13 19:18:56;;;;;;;;;;;;;;;12.99;81.82;98392.19;7383862;19;20406;-77
2023/05/13 19:21:23;;;;;;;;;;;;;;;13.02;82.23;98391.84;7383881;19;20312;-77
2023/05/13 19:23:50;;;;;;;;;;;;;;;13.04;83.08;98397.81;7384052;19;19955;-77
2023/05/13 19:26:16;;;;;;;;;;;;;;;13.08;82.41;98392.97;7380490;19;19927;-77
2023/05/13 19:28:44;;;;;;;;;;;;;;;13.07;82.42;98389.50;7390537;19;20183;-77
2023/05/13 19:31:11;;;;;;;;;;;;;;;13.01;82.32;98400.81;7383399;19;19915;-77
2023/05/13 19:33:37;;;;;;;;;;;;;;;12.98;82.43;98403.81;7382621;19;19923;-77
2023/05/13 19:36:04;;;;;;;;;;;;;;;12.91;82.66;98400.16;7380016;19;19938;-77
2023/05/13 19:38:32;;;;;;;;;;;;;;;12.81;82.01;98408.31;7374710;19;20350;-77
2023/05/13 19:40:59;;;;;;;;;;;;;;;12.73;82.07;98410.97;7371834;19;19923;-78
2023/05/13 19:43:26;;;;;;;;;;;;;;;12.70;82.65;98416.63;7377780;19;20256;-77
2023/05/13 19:45:55;;;;;;;;;;;;;;;12.70;82.18;98408.69;7378747;19;19926;-77
2023/05/13 19:48:22;;;;;;;;;;;;;;;12.69;82.96;98410.50;7384903;19;19922;-77
2023/05/13 19:50:52;;;;;;;;;;;;;;;12.69;82.75;98409.66;7380006;19;19915;-77
2023/05/13 19:53:20;;;;;;;;;;;;;;;12.64;82.83;98404.03;7385711;19;19949;-77
2023/05/13 19:55:46;;;;;;;;;;;;;;;12.56;83.60;98410.19;7384818;19;19927;-78
2023/05/13 19:58:13;;;;;;;;;;;;;;;12.70;82.38;98406.03;7389064;19;19922;-77
2023/05/13 20:00:42;;;;;;;;;;;;;;;12.73;81.90;98406.50;7390554;19;20387;-78
2023/05/13 20:03:09;;;;;;;;;;;;;;;12.45;82.74;98415.81;7395193;19;20434;-78
2023/05/13 20:05:38;;;;;;;;;;;;;;;12.37;83.25;98421.13;7397914;19;19925;-78
2023/05/13 20:08:05;;;;;;;;;;;;;;;12.32;83.58;98416.31;7402045;19;20365;-78
2023/05/13 20:10:34;;;;;;;;;;;;;;;12.32;83.60;98423.44;7405752;19;19911;-78
2023/05/13 20:13:02;;;;;;;;;;;;;;;12.27;83.98;98416.84;7398735;19;19915;-77
2023/05/13 20:15:32;;;;;;;;;;;;;;;12.26;84.05;98415.16;7397718;19;19917;-78
2023/05/13 20:17:58;;;;;;;;;;;;;;;12.27;84.43;98411.53;7402060;19;20290;-78
2023/05/13 20:20:25;;;;;;;;;;;;;;;12.34;84.41;98410.84;7400077;19;20408;-77
2023/05/13 20:22:52;;;;;;;;;;;;;;;12.41;84.72;98417.97;7404706;19;19927;-78
2023/05/13 20:25:19;;;;;;;;;;;;;;;12.45;85.26;98416.66;7377189;19;19922;-72
2023/05/13 20:27:45;;;;;;;;;;;;;;;12.53;85.79;98407.84;7370975;19;19918;-72
2023/05/13 20:30:12;;;;;;;;;;;;;;;12.59;85.81;98415.16;7379690;19;20035;-72
2023/05/13 20:32:39;;;;;;;;;;;;;;;12.67;84.82;98412.50;7375364;19;19919;-72
2023/05/13 20:35:06;;;;;;;;;;;;;;;12.74;85.18;98408.19;7373677;19;19918;-72
2023/05/13 20:37:33;;;;;;;;;;;;;;;12.83;85.02;98410.81;7371368;19;19947;-72
2023/05/13 20:39:59;;;;;;;;;;;;;;;12.89;83.92;98410.13;7369920;19;19919;-72
2023/05/13 20:42:26;;;;;;;;;;;;;;;12.93;84.45;98408.81;7375915;19;19958;-71
2023/05/13 20:44:53;;;;;;;;;;;;;;;12.97;83.92;98410.09;7372909;19;19914;-73
2023/05/13 20:47:20;;;;;;;;;;;;;;;12.87;84.19;98409.47;7368248;19;20284;-72
2023/05/13 20:49:46;;;;;;;;;;;;;;;12.91;84.20;98400.16;7375201;19;19939;-71
2023/05/13 20:52:13;;;;;;;;;;;;;;;12.95;84.23;98398.81;7372104;19;20347;-74
2023/05/13 20:54:40;;;;;;;;;;;;;;;12.91;84.32;98397.50;7360687;19;20277;-73
2023/05/13 20:57:07;;;;;;;;;;;;;;;12.84;84.59;98401.84;7365745;19;19946;-74
2023/05/13 20:59:33;;;;;;;;;;;;;;;12.90;84.39;98387.88;7375648;19;19918;-74
2023/05/13 21:02:00;;;;;;;;;;;;;;;12.99;84.19;98394.00;7372270;19;19968;-73
2023/05/13 21:04:27;;;;;;;;;;;;;;;13.02;84.53;98394.50;7375094;19;19915;-73
2023/05/13 21:06:53;;;;;;;;;;;;;;;13.02;84.95;98401.63;7368118;19;20283;-74
2023/05/13 21:09:20;;;;;;;;;;;;;;;13.01;84.79;98397.34;7368788;19;19919;-74
2023/05/13 21:11:47;;;;;;;;;;;;;;;12.95;85.19;98399.66;7372317;19;20267;-74
2023/05/13 21:14:13;;;;;;;;;;;;;;;12.97;86.05;98404.78;7372828;19;19926;-75
2023/05/13 21:16:40;;;;;;;;;;;;;;;12.81;87.09;98408.31;7366454;19;20484;-75
2023/05/13 21:19:07;;;;;;;;;;;;;;;13.08;85.71;98390.31;7368498;19;19993;-75
2023/05/13 21:21:33;;;;;;;;;;;;;;;12.76;86.37;98392.06;7371489;19;19953;-75
2023/05/13 21:24:00;;;;;;;;;;;;;;;12.52;87.11;98384.97;7367337;19;19929;-75
2023/05/13 21:26:26;;;;;;;;;;;;;;;12.56;88.18;98391.63;7365212;19;19919;-75
2023/05/13 21:28:53;;;;;;;;;;;;;;;12.57;87.90;98400.41;7375356;19;20294;-75
2023/05/13 21:31:20;;;;;;;;;;;;;;;12.57;88.65;98400.41;7378896;19;20266;-75
2023/05/13 21:33:47;;;;;;;;;;;;;;;12.64;88.76;98388.94;7378903;19;19923;-75
2023/05/13 21:36:14;;;;;;;;;;;;;;;12.69;88.83;98391.06;7372678;19;19982;-74
2023/05/13 21:38:41;;;;;;;;;;;;;;;12.64;88.95;98386.28;7376870;19;19939;-73
2023/05/13 21:41:08;;;;;;;;;;;;;;;12.70;89.05;98393.56;7370868;19;19923;-75
2023/05/13 21:43:34;;;;;;;;;;;;;;;12.93;87.79;98387.56;7376778;19;19950;-75
2023/05/13 21:46:02;;;;;;;;;;;;;;;13.01;87.15;98381.41;7376332;19;19917;-73
2023/05/13 21:48:28;;;;;;;;;;;;;;;12.81;87.77;98384.41;7376062;19;19919;-75
2023/05/13 21:50:55;;;;;;;;;;;;;;;12.98;87.14;98385.22;7376709;19;20340;-75
2023/05/13 21:53:22;;;;;;;;;;;;;;;12.79;87.94;98382.94;7377006;19;19919;-75
2023/05/13 21:55:49;;;;;;;;;;;;;;;12.70;88.69;98384.78;7375182;19;20299;-75
2023/05/13 21:58:16;;;;;;;;;;;;;;;12.72;88.70;98382.78;7373144;19;19923;-75
2023/05/13 22:00:42;;;;;;;;;;;;;;;12.65;88.76;98382.63;7375556;19;20645;-75
2023/05/13 22:03:09;;;;;;;;;;;;;;;12.85;87.76;98374.28;7372514;19;19964;-75
2023/05/13 22:05:42;;;;;;;;;;;;;;;12.59;88.54;98379.84;7372513;19;19982;-74
2023/05/13 22:08:09;;;;;;;;;;;;;;;12.36;89.33;98374.38;7372930;19;20350;-75
2023/05/13 22:10:36;;;;;;;;;;;;;;;12.68;88.21;98371.66;7374121;19;19930;-75
2023/05/13 22:13:02;;;;;;;;;;;;;;;12.46;88.56;98375.88;7373391;19;20253;-75
2023/05/13 22:15:29;;;;;;;;;;;;;;;12.59;88.42;98378.00;7370864;19;19936;-75
2023/05/13 22:17:56;;;;;;;;;;;;;;;12.45;88.85;98374.22;7368210;19;19986;-73
2023/05/13 22:20:23;;;;;;;;;;;;;;;12.24;90.15;98380.03;7378029;19;19941;-73
2023/05/13 22:22:50;;;;;;;;;;;;;;;12.23;90.63;98367.75;7374546;19;19923;-73
2023/05/13 22:25:17;;;;;;;;;;;;;;;12.23;90.53;98378.34;7371672;19;19952;-73
2023/05/13 22:27:45;;;;;;;;;;;;;;;12.19;90.70;98378.84;7373324;19;19954;-73
2023/05/13 22:30:11;;;;;;;;;;;;;;;12.20;90.46;98368.09;7371548;19;21232;-73
2023/05/13 22:32:38;;;;;;;;;;;;;;;12.20;90.81;98369.91;7371140;19;20278;-73
2023/05/13 22:35:06;;;;;;;;;;;;;;;12.03;90.10;98371.72;7374394;19;20266;-73
2023/05/13 22:37:32;;;;;;;;;;;;;;;12.15;90.31;98372.22;7373197;19;19923;-73
2023/05/13 22:39:59;;;;;;;;;;;;;;;12.13;90.66;98372.38;7369824;19;20273;-73
2023/05/13 22:42:26;;;;;;;;;;;;;;;12.20;90.70;98370.72;7371827;19;19926;-75
2023/05/13 22:44:53;;;;;;;;;;;;;;;12.09;90.58;98365.78;7374591;19;19915;-75
2023/05/13 22:47:20;;;;;;;;;;;;;;;12.21;90.84;98375.03;7370480;19;19915;-75
2023/05/13 22:49:46;;;;;;;;;;;;;;;12.45;89.69;98374.22;7373749;19;19922;-75
2023/05/13 22:52:13;;;;;;;;;;;;;;;12.55;89.27;98365.22;7370450;19;19915;-75
2023/05/13 22:54:40;;;;;;;;;;;;;;;12.63;88.79;98363.38;7373311;19;20369;-75
2023/05/13 22:57:06;;;;;;;;;;;;;;;12.61;88.31;98362.75;7369016;19;19935;-73
2023/05/13 22:59:34;;;;;;;;;;;;;;;12.63;87.80;98365.22;7376031;19;19929;-73
2023/05/13 23:02:00;;;;;;;;;;;;;;;12.65;87.89;98363.22;7370987;19;20781;-74
2023/05/13 23:04:27;;;;;;;;;;;;;;;12.67;87.41;98359.41;7371023;19;20344;-75
2023/05/13 23:06:54;;;;;;;;;;;;;;;12.37;89.27;98354.81;7360496;19;19919;-72
2023/05/13 23:09:21;;;;;;;;;;;;;;;12.22;90.29;98352.00;7369502;19;19922;-75
2023/05/13 23:11:47;;;;;;;;;;;;;;;12.25;90.46;98352.50;7362198;19;19919;-75
2023/05/13 23:14:14;;;;;;;;;;;;;;;12.26;90.68;98343.53;7363739;19;19918;-75
2023/05/13 23:16:40;;;;;;;;;;;;;;;12.23;89.58;98346.53;7368872;19;20298;-75
2023/05/13 23:19:07;;;;;;;;;;;;;;;12.38;89.46;98349.34;7369720;19;19918;-75
2023/05/13 23:21:34;;;;;;;;;;;;;;;12.68;87.57;98341.66;7366340;19;19911;-75
2023/05/13 23:24:01;;;;;;;;;;;;;;;12.76;87.15;98340.81;7366130;19;20368;-73
2023/05/13 23:26:27;;;;;;;;;;;;;;;12.30;87.54;98338.75;7370267;19;19923;-74
2023/05/13 23:28:54;;;;;;;;;;;;;;;12.19;88.42;98336.41;7367136;19;20340;-73
2023/05/13 23:31:21;;;;;;;;;;;;;;;12.20;88.75;98327.47;7376195;19;19944;-73
2023/05/13 23:33:47;;;;;;;;;;;;;;;11.91;88.47;98335.94;7369640;19;20493;-73
2023/05/13 23:36:14;;;;;;;;;;;;;;;11.97;88.67;98329.97;7366341;19;21466;-73
2023/05/13 23:38:41;;;;;;;;;;;;;;;12.06;89.27;98329.81;7372382;19;20298;-73
2023/05/13 23:41:08;;;;;;;;;;;;;;;11.96;89.59;98331.78;7376498;19;19911;-73
2023/05/13 23:43:34;;;;;;;;;;;;;;;11.98;90.04;98313.91;7379727;19;20395;-73
2023/05/13 23:46:01;;;;;;;;;;;;;;;11.97;89.68;98314.06;7371370;19;19911;-73
2023/05/13 23:48:27;;;;;;;;;;;;;;;12.06;89.98;98310.41;7377038;19;20791;-73
2023/05/13 23:50:54;;;;;;;;;;;;;;;12.12;89.71;98311.56;7378361;19;19935;-73
2023/05/13 23:53:21;;;;;;;;;;;;;;;12.21;89.09;98305.25;7376084;19;19914;-73
2023/05/13 23:55:47;;;;;;;;;;;;;;;12.11;87.92;98310.72;7375114;19;19951;-73
2023/05/13 23:58:14;;;;;;;;;;;;;;;12.51;85.78;98314.34;7377958;19;19948;-73
